createdAt,value
2019-03-23T00:01:55.088Z,56.27
2019-03-23T00:03:57.293Z,53.13
2019-03-23T00:05:59.528Z,54.00
2019-03-23T00:08:01.779Z,57.57
2019-03-23T00:10:04.771Z,59.87
2019-03-23T00:12:06.985Z,44.23
2019-03-23T00:14:09.201Z,37.67
2019-03-23T00:16:11.425Z,47.10
2019-03-23T00:18:13.651Z,43.23
2019-03-23T00:20:15.872Z,51.20
2019-03-23T00:22:18.085Z,43.70
2019-03-23T00:24:20.309Z,46.73
2019-03-23T00:26:22.525Z,33.83
2019-03-23T00:28:24.972Z,48.60
2019-03-23T00:30:27.173Z,50.07
2019-03-23T00:32:29.380Z,52.90
2019-03-23T00:34:31.596Z,54.07
2019-03-23T00:36:41.229Z,61.23
2019-03-23T00:38:37.924Z,51.70
2019-03-23T00:40:40.128Z,67.60
2019-03-23T00:42:42.364Z,61.60
2019-03-23T00:44:44.658Z,49.90
2019-03-23T00:46:46.869Z,48.00
2019-03-23T00:48:49.401Z,51.70
2019-03-23T00:50:51.600Z,56.20
2019-03-23T00:52:54.102Z,65.70
2019-03-23T00:54:56.309Z,49.83
2019-03-23T00:56:58.552Z,55.60
2019-03-23T00:59:00.758Z,47.33
2019-03-23T01:01:02.987Z,57.10
2019-03-23T01:03:05.298Z,57.60
2019-03-23T01:05:07.635Z,54.30
2019-03-23T01:07:10.084Z,44.97
2019-03-23T01:09:12.312Z,46.10
2019-03-23T01:11:14.520Z,30.33
2019-03-23T01:13:16.724Z,41.30
2019-03-23T01:15:19.034Z,34.03
2019-03-23T01:17:21.255Z,35.17
2019-03-23T01:19:23.471Z,37.13
2019-03-23T01:21:25.680Z,45.90
2019-03-23T01:23:27.904Z,40.03
2019-03-23T01:25:30.124Z,40.23
2019-03-23T01:27:32.348Z,45.87
2019-03-23T01:29:34.807Z,41.13
2019-03-23T01:31:37.016Z,41.13
2019-03-23T01:33:39.235Z,42.73
2019-03-23T01:35:41.446Z,53.40
2019-03-23T01:37:43.653Z,37.93
2019-03-23T01:39:45.853Z,50.10
2019-03-23T01:41:48.069Z,41.10
2019-03-23T01:43:50.563Z,34.63
2019-03-23T01:45:52.880Z,26.67
2019-03-23T01:47:55.117Z,33.23
2019-03-23T01:49:57.319Z,23.90
2019-03-23T01:51:59.551Z,33.63
2019-03-23T01:54:01.773Z,52.80
2019-03-23T01:56:03.973Z,36.40
2019-03-23T01:58:06.207Z,43.40
2019-03-23T02:00:08.524Z,42.93
2019-03-23T02:02:10.732Z,53.00
2019-03-23T02:04:12.937Z,52.40
2019-03-23T02:06:15.519Z,47.17
2019-03-23T02:08:17.851Z,50.60
2019-03-23T02:10:20.062Z,55.07
2019-03-23T02:12:22.272Z,48.80
2019-03-23T02:14:24.501Z,56.50
2019-03-23T02:16:26.700Z,43.90
2019-03-23T02:18:28.923Z,41.80
2019-03-23T02:20:31.125Z,36.50
2019-03-23T02:22:33.364Z,38.93
2019-03-23T02:24:35.926Z,47.27
2019-03-23T02:26:38.144Z,45.17
2019-03-23T02:28:40.351Z,37.10
2019-03-23T02:30:42.560Z,30.03
2019-03-23T02:32:44.792Z,41.70
2019-03-23T02:34:47.013Z,44.53
2019-03-23T02:36:49.247Z,35.57
2019-03-23T02:38:51.789Z,40.37
2019-03-23T02:40:54.001Z,40.00
2019-03-23T02:42:56.786Z,37.77
2019-03-23T02:44:58.986Z,45.47
2019-03-23T02:47:01.208Z,46.77
2019-03-23T02:49:03.412Z,45.77
2019-03-23T02:51:05.622Z,43.20
2019-03-23T02:53:07.851Z,43.33
2019-03-23T02:55:10.586Z,50.20
2019-03-23T02:57:12.805Z,50.70
2019-03-23T02:59:15.019Z,43.30
2019-03-23T03:01:17.226Z,48.73
2019-03-23T03:03:19.444Z,34.83
2019-03-23T03:05:21.742Z,31.10
2019-03-23T03:07:23.967Z,28.73
2019-03-23T03:09:26.161Z,36.23
2019-03-23T03:11:28.601Z,31.23
2019-03-23T03:13:30.826Z,35.53
2019-03-23T03:15:33.039Z,35.67
2019-03-23T03:17:35.262Z,28.30
2019-03-23T03:19:37.462Z,30.83
2019-03-23T03:21:39.672Z,28.93
2019-03-23T03:23:41.878Z,28.60
2019-03-23T03:25:44.086Z,30.57
2019-03-23T03:27:46.301Z,30.67
2019-03-23T03:29:48.508Z,35.90
2019-03-23T03:31:50.725Z,40.13
2019-03-23T03:33:52.939Z,43.07
2019-03-23T03:35:55.150Z,46.80
2019-03-23T03:37:57.541Z,50.77
2019-03-23T03:39:59.886Z,57.10
2019-03-23T03:42:02.112Z,52.43
2019-03-23T03:44:04.316Z,61.60
2019-03-23T03:46:06.515Z,59.20
2019-03-23T03:48:08.735Z,71.53
2019-03-23T03:50:11.373Z,62.63
2019-03-23T03:52:13.605Z,75.83
2019-03-23T03:54:15.807Z,73.00
2019-03-23T03:56:18.014Z,73.97
2019-03-23T03:58:20.238Z,82.80
2019-03-23T04:00:22.446Z,82.93
2019-03-23T04:02:24.976Z,85.63
2019-03-23T04:04:27.180Z,98.40
2019-03-23T04:06:29.389Z,105.00
2019-03-23T04:08:31.611Z,114.77
2019-03-23T04:10:33.815Z,124.00
2019-03-23T04:12:36.129Z,116.17
2019-03-23T04:14:38.358Z,117.00
2019-03-23T04:16:40.889Z,109.33
2019-03-23T04:18:43.101Z,103.83
2019-03-23T04:20:45.315Z,110.03
2019-03-23T04:22:47.548Z,117.33
2019-03-23T04:24:50.108Z,103.87
2019-03-23T04:26:52.589Z,127.03
2019-03-23T04:28:54.803Z,126.80
2019-03-23T04:30:57.007Z,134.77
2019-03-23T04:32:59.229Z,184.10
2019-03-23T04:35:01.464Z,194.93
2019-03-23T04:37:03.686Z,183.77
2019-03-23T04:39:06.270Z,207.60
2019-03-23T04:41:08.471Z,190.73
2019-03-23T04:43:10.914Z,192.17
2019-03-23T04:45:13.368Z,189.60
2019-03-23T04:47:15.575Z,202.83
2019-03-23T04:49:17.772Z,215.57
2019-03-23T04:51:20.273Z,220.83
2019-03-23T04:53:22.478Z,254.53
2019-03-23T04:55:24.696Z,224.73
2019-03-23T04:57:26.925Z,234.70
2019-03-23T04:59:29.128Z,232.80
2019-03-23T05:01:31.332Z,225.63
2019-03-23T05:03:33.536Z,249.57
2019-03-23T05:05:35.768Z,238.60
2019-03-23T05:07:37.976Z,214.43
2019-03-23T05:09:40.181Z,224.23
2019-03-23T05:11:42.368Z,212.13
2019-03-23T05:13:44.580Z,168.37
2019-03-23T05:15:46.783Z,184.23
2019-03-23T05:17:48.997Z,188.43
2019-03-23T05:19:51.197Z,180.77
2019-03-23T05:21:53.404Z,176.60
2019-03-23T05:23:55.621Z,175.30
2019-03-23T05:25:57.825Z,160.47
2019-03-23T05:28:00.043Z,169.97
2019-03-23T05:30:02.439Z,176.47
2019-03-23T05:32:04.648Z,154.33
2019-03-23T05:34:06.862Z,171.17
2019-03-23T05:36:09.071Z,158.00
2019-03-23T05:38:11.282Z,164.23
2019-03-23T05:40:13.488Z,171.63
2019-03-23T05:42:15.690Z,176.17
2019-03-23T05:44:17.906Z,186.30
2019-03-23T05:46:20.105Z,187.97
2019-03-23T05:48:22.325Z,198.40
2019-03-23T05:50:24.540Z,195.93
2019-03-23T05:52:26.760Z,185.70
2019-03-23T05:54:28.961Z,173.80
2019-03-23T05:56:31.165Z,185.13
2019-03-23T05:58:33.389Z,174.10
2019-03-23T06:00:35.605Z,171.70
2019-03-23T06:02:37.800Z,175.87
2019-03-23T06:04:40.010Z,177.40
2019-03-23T06:06:42.221Z,167.17
2019-03-23T06:08:54.275Z,180.57
2019-03-23T06:10:48.857Z,184.83
2019-03-23T06:12:51.065Z,164.43
2019-03-23T06:14:53.269Z,195.90
2019-03-23T06:16:55.482Z,200.20
2019-03-23T06:18:57.697Z,207.60
2019-03-23T06:21:00.189Z,215.00
2019-03-23T06:23:02.404Z,201.80
2019-03-23T06:25:04.817Z,196.33
2019-03-23T06:27:07.013Z,205.33
2019-03-23T06:29:09.224Z,206.87
2019-03-23T06:31:11.552Z,205.70
2019-03-23T06:33:13.766Z,226.47
2019-03-23T06:35:16.398Z,199.70
2019-03-23T06:37:18.611Z,204.10
2019-03-23T06:39:20.830Z,211.53
2019-03-23T06:41:23.048Z,190.90
2019-03-23T06:43:25.265Z,194.33
2019-03-23T06:45:27.475Z,172.27
2019-03-23T06:47:29.696Z,195.03
2019-03-23T06:49:31.921Z,183.80
2019-03-23T06:51:34.139Z,185.10
2019-03-23T06:53:36.616Z,195.37
2019-03-23T06:55:39.120Z,172.33
2019-03-23T06:57:41.339Z,175.80
2019-03-23T06:59:43.563Z,181.90
2019-03-23T07:01:45.776Z,172.87
2019-03-23T07:03:47.994Z,205.80
2019-03-23T07:05:50.216Z,206.67
2019-03-23T07:07:52.419Z,212.87
2019-03-23T07:09:54.730Z,194.47
2019-03-23T07:11:56.940Z,215.10
2019-03-23T07:13:59.154Z,184.30
2019-03-23T07:16:01.369Z,199.00
2019-03-23T07:18:03.580Z,200.53
2019-03-23T07:20:07.148Z,193.60
2019-03-23T07:22:09.364Z,195.53
2019-03-23T07:24:11.568Z,181.63
2019-03-23T07:26:13.793Z,189.30
2019-03-23T07:28:16.038Z,184.17
2019-03-23T07:30:18.345Z,188.60
2019-03-23T07:32:20.558Z,182.57
2019-03-23T07:34:23.131Z,190.03
2019-03-23T07:36:25.329Z,190.50
2019-03-23T07:38:27.549Z,187.13
2019-03-23T07:40:29.775Z,194.03
2019-03-23T07:42:31.979Z,185.63
2019-03-23T07:44:34.190Z,190.27
2019-03-23T07:46:36.376Z,197.63
2019-03-23T07:48:38.589Z,227.03
2019-03-23T07:50:40.801Z,198.23
2019-03-23T07:52:42.992Z,200.37
2019-03-23T07:54:45.213Z,196.20
2019-03-23T07:56:47.415Z,207.17
2019-03-23T07:58:49.632Z,215.70
2019-03-23T08:00:51.837Z,194.87
2019-03-23T08:02:54.050Z,186.50
2019-03-23T08:04:56.316Z,192.83
2019-03-23T08:06:58.525Z,197.43
2019-03-23T08:09:00.746Z,188.43
2019-03-23T08:11:02.965Z,194.83
2019-03-23T08:13:05.174Z,199.87
2019-03-23T08:15:07.819Z,181.03
2019-03-23T08:17:10.040Z,202.93
2019-03-23T08:19:12.582Z,205.10
2019-03-23T08:21:15.122Z,226.90
2019-03-23T08:23:17.326Z,187.57
2019-03-23T08:25:19.524Z,194.00
2019-03-23T08:27:21.737Z,207.00
2019-03-23T08:29:23.963Z,195.17
2019-03-23T08:31:26.164Z,180.63
2019-03-23T08:33:28.374Z,186.90
2019-03-23T08:35:30.585Z,202.47
2019-03-23T08:41:11.158Z,193.57
2019-03-23T08:43:13.365Z,208.17
2019-03-23T08:45:15.585Z,203.47
2019-03-23T08:47:17.802Z,205.23
2019-03-23T08:49:20.113Z,225.00
2019-03-23T08:51:22.598Z,214.50
2019-03-23T08:53:24.833Z,221.73
2019-03-23T08:55:27.129Z,191.90
2019-03-23T08:57:29.390Z,203.33
2019-03-23T08:59:31.610Z,214.20
2019-03-23T09:01:33.826Z,196.87
2019-03-23T09:03:36.046Z,204.23
2019-03-23T09:05:38.562Z,221.13
2019-03-23T09:07:40.765Z,223.13
2019-03-23T09:09:42.984Z,209.07
2019-03-23T09:11:45.462Z,224.40
2019-03-23T09:13:47.661Z,240.37
2019-03-23T09:15:49.978Z,222.03
2019-03-23T09:17:52.183Z,224.97
2019-03-23T09:19:54.481Z,207.43
2019-03-23T09:21:56.693Z,224.20
2019-03-23T09:23:59.158Z,218.40
2019-03-23T09:26:01.382Z,216.50
2019-03-23T09:28:03.588Z,212.90
2019-03-23T09:30:07.562Z,217.03
2019-03-23T09:32:09.761Z,235.70
2019-03-23T09:34:12.250Z,223.40
2019-03-23T09:36:14.466Z,230.80
2019-03-23T09:38:16.663Z,229.33
2019-03-23T09:40:19.673Z,230.70
2019-03-23T09:42:21.877Z,218.83
2019-03-23T09:44:24.182Z,216.80
2019-03-23T09:46:26.399Z,203.83
2019-03-23T09:48:28.605Z,208.67
2019-03-23T09:50:30.827Z,209.47
2019-03-23T09:52:33.033Z,184.83
2019-03-23T09:54:35.233Z,192.77
2019-03-23T09:56:37.726Z,182.87
2019-03-23T09:58:39.942Z,168.77
2019-03-23T10:00:42.166Z,200.83
2019-03-23T10:02:44.381Z,192.43
2019-03-23T10:04:46.689Z,215.97
2019-03-23T10:06:49.012Z,205.10
2019-03-23T10:08:51.217Z,209.70
2019-03-23T10:10:53.437Z,206.77
2019-03-23T10:12:55.637Z,215.07
2019-03-23T10:14:57.841Z,187.60
2019-03-23T10:17:00.041Z,211.97
2019-03-23T10:19:02.250Z,210.77
2019-03-23T10:21:04.462Z,193.77
2019-03-23T10:23:06.669Z,193.33
2019-03-23T10:25:08.880Z,173.10
2019-03-23T10:27:11.100Z,159.93
2019-03-23T10:29:13.706Z,132.37
2019-03-23T10:31:16.223Z,128.03
2019-03-23T10:33:18.425Z,128.30
2019-03-23T10:35:20.647Z,133.33
2019-03-23T10:37:22.854Z,161.27
2019-03-23T10:39:25.058Z,174.07
2019-03-23T10:41:27.276Z,164.27
2019-03-23T10:43:29.794Z,167.83
2019-03-23T10:45:32.016Z,164.77
2019-03-23T10:47:34.349Z,181.40
2019-03-23T10:49:36.726Z,176.63
2019-03-23T10:51:39.309Z,163.67
2019-03-23T10:53:41.573Z,160.20
2019-03-23T10:55:44.055Z,159.37
2019-03-23T10:57:46.273Z,156.23
2019-03-23T10:59:48.486Z,176.67
2019-03-23T11:01:50.733Z,168.23
2019-03-23T11:03:52.938Z,161.20
2019-03-23T11:05:55.154Z,146.33
2019-03-23T11:07:57.363Z,155.33
2019-03-23T11:09:59.562Z,155.73
2019-03-23T11:12:01.784Z,163.13
2019-03-23T11:14:03.994Z,178.70
2019-03-23T11:16:06.217Z,141.50
2019-03-23T11:18:08.416Z,158.27
2019-03-23T11:20:10.657Z,149.20
2019-03-23T11:22:12.873Z,157.33
2019-03-23T11:24:15.073Z,143.43
2019-03-23T11:26:17.288Z,151.87
2019-03-23T11:28:19.481Z,167.50
2019-03-23T11:30:21.682Z,148.67
2019-03-23T11:32:23.903Z,148.27
2019-03-23T11:34:26.390Z,137.23
2019-03-23T11:36:28.606Z,141.23
2019-03-23T11:38:30.805Z,137.87
2019-03-23T11:40:33.013Z,147.90
2019-03-23T11:42:35.237Z,128.13
2019-03-23T11:44:37.449Z,114.93
2019-03-23T11:46:39.665Z,131.43
2019-03-23T11:48:41.891Z,125.27
2019-03-23T11:50:44.183Z,117.63
2019-03-23T11:52:47.174Z,125.07
2019-03-23T11:54:49.501Z,131.13
2019-03-23T11:56:51.722Z,133.13
2019-03-23T11:58:54.127Z,129.80
2019-03-23T12:00:56.545Z,135.70
2019-03-23T12:02:58.761Z,138.37
2019-03-23T12:05:00.970Z,135.23
2019-03-23T12:07:03.198Z,129.17
2019-03-23T12:09:06.815Z,132.57
2019-03-23T12:11:09.022Z,117.23
2019-03-23T12:13:11.239Z,130.33
2019-03-23T12:15:13.463Z,139.67
2019-03-23T12:17:15.677Z,113.13
2019-03-23T12:19:17.885Z,107.93
2019-03-23T12:21:20.090Z,108.00
2019-03-23T12:23:22.309Z,105.33
2019-03-23T12:25:24.513Z,104.33
2019-03-23T12:27:26.738Z,118.07
2019-03-23T12:29:28.954Z,104.13
2019-03-23T12:31:31.434Z,99.63
2019-03-23T12:33:33.644Z,107.20
2019-03-23T12:35:35.851Z,113.83
2019-03-23T12:37:38.066Z,111.97
2019-03-23T12:39:40.304Z,112.10
2019-03-23T12:41:42.598Z,109.07
2019-03-23T12:43:44.801Z,96.37
2019-03-23T12:45:47.005Z,105.60
2019-03-23T12:47:49.222Z,113.30
2019-03-23T12:49:51.422Z,91.67
2019-03-23T12:51:53.643Z,101.77
2019-03-23T12:53:55.841Z,94.87
2019-03-23T12:55:58.049Z,91.10
2019-03-23T12:58:00.270Z,96.80
2019-03-23T13:00:02.857Z,98.07
2019-03-23T13:02:05.077Z,96.17
2019-03-23T13:04:07.590Z,95.50
2019-03-23T13:06:09.794Z,89.23
2019-03-23T13:08:12.015Z,94.40
2019-03-23T13:10:14.243Z,103.47
2019-03-23T13:12:16.462Z,99.57
2019-03-23T13:14:18.669Z,101.20
2019-03-23T13:16:20.873Z,104.63
2019-03-23T13:18:27.181Z,101.50
2019-03-23T13:20:27.321Z,94.30
2019-03-23T13:22:29.614Z,98.63
2019-03-23T13:24:31.826Z,103.57
2019-03-23T13:26:34.025Z,106.90
2019-03-23T13:28:36.243Z,106.73
2019-03-23T13:30:38.453Z,106.97
2019-03-23T13:32:40.678Z,92.07
2019-03-23T13:34:43.210Z,95.77
2019-03-23T13:36:45.702Z,98.27
2019-03-23T13:38:48.173Z,100.60
2019-03-23T13:40:50.381Z,108.40
2019-03-23T13:42:52.602Z,115.00
2019-03-23T13:44:54.809Z,100.80
2019-03-23T13:46:57.021Z,99.97
2019-03-23T13:48:59.494Z,105.47
2019-03-23T13:51:01.697Z,99.93
2019-03-23T13:53:03.934Z,100.67
2019-03-23T13:55:06.375Z,107.10
2019-03-23T13:57:08.867Z,104.73
2019-03-23T13:59:11.080Z,107.40
2019-03-23T14:01:13.531Z,100.50
2019-03-23T14:03:15.757Z,108.83
2019-03-23T14:05:17.948Z,107.90
2019-03-23T14:07:20.157Z,96.17
2019-03-23T14:09:22.386Z,110.33
2019-03-23T14:11:24.626Z,112.17
2019-03-23T14:13:27.879Z,108.43
2019-03-23T14:15:30.324Z,109.17
2019-03-23T14:17:32.537Z,109.77
2019-03-23T14:19:34.969Z,97.10
2019-03-23T14:21:37.585Z,108.63
2019-03-23T14:23:39.809Z,109.40
2019-03-23T14:25:42.257Z,101.63
2019-03-23T14:27:44.466Z,97.83
2019-03-23T14:29:46.695Z,107.67
2019-03-23T14:31:48.900Z,92.97
2019-03-23T14:33:51.118Z,90.77
2019-03-23T14:35:53.665Z,100.73
2019-03-23T14:37:55.878Z,95.20
2019-03-23T14:39:58.437Z,98.03
2019-03-23T14:42:04.819Z,94.67
2019-03-23T14:44:04.761Z,85.93
2019-03-23T14:46:06.974Z,92.60
2019-03-23T14:48:09.181Z,92.50
2019-03-23T14:50:11.401Z,102.03
2019-03-23T14:52:13.610Z,95.27
2019-03-23T14:54:15.829Z,97.40
2019-03-23T14:56:18.033Z,101.37
2019-03-23T14:58:20.273Z,97.30
2019-03-23T15:00:30.120Z,106.13
2019-03-23T15:02:32.330Z,95.90
2019-03-23T15:04:34.546Z,95.00
2019-03-23T15:06:36.750Z,92.80
2019-03-23T15:08:38.965Z,105.07
2019-03-23T15:10:41.170Z,99.83
2019-03-23T15:12:43.381Z,97.70
2019-03-23T15:14:45.942Z,95.90
2019-03-23T15:16:48.150Z,98.63
2019-03-23T15:18:50.367Z,102.77
2019-03-23T15:20:52.569Z,104.67
2019-03-23T15:22:55.022Z,107.10
2019-03-23T15:24:57.237Z,94.17
2019-03-23T15:26:59.445Z,103.20
2019-03-23T15:29:01.661Z,95.47
2019-03-23T15:31:03.866Z,105.63
2019-03-23T15:33:06.078Z,102.77
2019-03-23T15:35:08.297Z,100.87
2019-03-23T15:37:10.503Z,105.27
2019-03-23T15:39:13.038Z,110.10
2019-03-23T15:41:15.238Z,112.87
2019-03-23T15:43:17.441Z,110.23
2019-03-23T15:45:19.665Z,112.83
2019-03-23T15:47:22.197Z,107.50
2019-03-23T15:49:24.422Z,106.97
2019-03-23T15:51:26.621Z,117.20
2019-03-23T15:53:28.817Z,122.17
2019-03-23T15:55:31.038Z,110.60
2019-03-23T15:57:33.285Z,115.10
2019-03-23T15:59:35.533Z,128.63
2019-03-23T16:01:37.746Z,127.10
2019-03-23T16:03:39.948Z,122.50
2019-03-23T16:05:42.169Z,125.73
2019-03-23T16:07:44.378Z,133.33
2019-03-23T16:09:46.597Z,125.83
2019-03-23T16:11:48.906Z,122.47
2019-03-23T16:13:51.109Z,118.20
2019-03-23T16:15:53.321Z,131.20
2019-03-23T16:17:55.781Z,129.20
2019-03-23T16:19:58.198Z,137.10
2019-03-23T16:22:00.468Z,128.30
2019-03-23T16:24:02.778Z,125.63
2019-03-23T16:26:05.002Z,128.60
2019-03-23T16:28:07.209Z,135.00
2019-03-23T16:30:10.852Z,127.73
2019-03-23T16:32:13.150Z,131.57
2019-03-23T16:34:15.353Z,143.50
2019-03-23T16:36:17.568Z,131.77
2019-03-23T16:38:19.777Z,106.83
2019-03-23T16:40:21.994Z,123.67
2019-03-23T16:42:24.203Z,119.67
2019-03-23T16:44:26.405Z,123.30
2019-03-23T16:46:28.621Z,124.03
2019-03-23T16:48:30.825Z,125.50
2019-03-23T16:50:33.374Z,118.73
2019-03-23T16:52:36.542Z,123.30
2019-03-23T16:54:38.748Z,135.37
2019-03-23T16:56:40.970Z,112.70
2019-03-23T16:58:43.220Z,121.23
2019-03-23T17:00:45.507Z,122.07
2019-03-23T17:02:47.694Z,125.73
2019-03-23T17:04:49.958Z,129.57
2019-03-23T17:06:52.170Z,136.10
2019-03-23T17:08:54.378Z,115.40
2019-03-23T17:10:56.596Z,115.77
2019-03-23T17:12:58.793Z,138.37
2019-03-23T17:15:01.013Z,120.37
2019-03-23T17:17:03.217Z,114.30
2019-03-23T17:19:05.721Z,124.40
2019-03-23T17:21:07.946Z,120.87
2019-03-23T17:23:10.149Z,115.57
2019-03-23T17:25:12.374Z,127.33
2019-03-23T17:27:14.593Z,127.23
2019-03-23T17:29:16.796Z,122.60
2019-03-23T17:31:19.010Z,128.83
2019-03-23T17:33:21.463Z,122.73
2019-03-23T17:35:23.666Z,110.70
2019-03-23T17:37:25.869Z,103.70
2019-03-23T17:39:28.088Z,108.77
2019-03-23T17:41:30.503Z,104.80
2019-03-23T17:43:32.770Z,98.57
2019-03-23T17:45:35.006Z,100.80
2019-03-23T17:47:37.290Z,80.33
2019-03-23T17:49:39.497Z,83.10
2019-03-23T17:51:42.025Z,90.33
2019-03-23T17:53:44.577Z,85.40
2019-03-23T17:55:46.801Z,78.27
2019-03-23T17:57:49.025Z,78.70
2019-03-23T17:59:51.241Z,78.20
2019-03-23T18:01:53.486Z,72.70
2019-03-23T18:03:55.710Z,73.53
2019-03-23T18:05:58.453Z,77.57
2019-03-23T18:08:01.028Z,64.93
2019-03-23T18:10:04.110Z,72.30
2019-03-23T18:12:06.329Z,63.33
2019-03-23T18:14:08.530Z,66.30
2019-03-23T18:16:10.994Z,67.53
2019-03-23T18:18:13.438Z,67.30
2019-03-23T18:20:15.670Z,72.47
2019-03-23T18:22:17.901Z,81.27
2019-03-23T18:24:20.115Z,82.20
2019-03-23T18:26:22.333Z,65.93
2019-03-23T18:28:24.545Z,70.83
2019-03-23T18:30:37.868Z,63.03
2019-03-23T18:32:40.092Z,58.60
2019-03-23T18:34:42.304Z,62.50
2019-03-23T18:36:44.838Z,59.93
2019-03-23T18:38:47.049Z,51.83
2019-03-23T18:40:49.271Z,52.67
2019-03-23T18:42:51.473Z,68.57
2019-03-23T18:44:53.694Z,82.10
2019-03-23T18:46:55.913Z,59.70
2019-03-23T18:48:58.121Z,52.00
2019-03-23T18:51:00.346Z,64.77
2019-03-23T18:53:02.583Z,54.27
2019-03-23T18:55:05.232Z,55.73
2019-03-23T18:57:07.454Z,54.23
2019-03-23T18:59:09.674Z,57.93
2019-03-23T19:01:11.893Z,46.73
2019-03-23T19:03:14.101Z,59.73
2019-03-23T19:05:16.671Z,58.57
2019-03-23T19:07:18.900Z,57.87
2019-03-23T19:09:21.114Z,56.10
2019-03-23T19:11:23.325Z,79.83
2019-03-23T19:13:25.830Z,54.60
2019-03-23T19:15:28.048Z,43.10
2019-03-23T19:17:30.269Z,56.43
2019-03-23T19:19:32.838Z,57.00
2019-03-23T19:21:35.066Z,50.87
2019-03-23T19:23:37.369Z,61.53
2019-03-23T19:25:39.573Z,58.97
2019-03-23T19:27:41.807Z,42.83
2019-03-23T19:29:44.013Z,47.80
2019-03-23T19:31:46.240Z,43.97
2019-03-23T19:33:48.453Z,58.20
2019-03-23T19:35:50.665Z,38.03
2019-03-23T19:37:52.882Z,45.53
2019-03-23T19:39:55.092Z,41.37
2019-03-23T19:41:57.317Z,55.53
2019-03-23T19:43:59.530Z,47.80
2019-03-23T19:46:01.749Z,46.43
2019-03-23T19:48:03.985Z,44.83
2019-03-23T19:50:06.462Z,43.20
2019-03-23T19:52:08.681Z,38.90
2019-03-23T19:54:10.903Z,39.27
2019-03-23T19:56:13.114Z,41.13
2019-03-23T19:58:15.361Z,43.30
2019-03-23T20:00:17.565Z,46.90
2019-03-23T20:02:19.790Z,37.93
2019-03-23T20:04:22.096Z,29.70
2019-03-23T20:06:24.301Z,30.90
2019-03-23T20:08:26.825Z,37.50
2019-03-23T20:10:29.282Z,27.47
2019-03-23T20:12:31.510Z,35.60
2019-03-23T20:14:33.718Z,38.73
2019-03-23T20:16:35.928Z,34.17
2019-03-23T20:18:38.153Z,37.17
2019-03-23T20:20:40.379Z,31.47
2019-03-23T20:22:42.622Z,34.23
2019-03-23T20:24:44.833Z,38.10
2019-03-23T20:26:47.058Z,37.63
2019-03-23T20:28:49.277Z,30.43
2019-03-23T20:30:51.491Z,32.80
2019-03-23T20:32:53.966Z,32.57
2019-03-23T20:34:56.190Z,29.53
2019-03-23T20:36:59.053Z,27.30
2019-03-23T20:39:01.304Z,32.53
2019-03-23T20:41:04.128Z,34.37
2019-03-23T20:43:06.346Z,21.10
2019-03-23T20:45:09.472Z,33.50
2019-03-23T20:47:11.706Z,25.03
2019-03-23T20:49:13.934Z,36.63
2019-03-23T20:51:16.454Z,31.97
2019-03-23T20:53:18.680Z,40.20
2019-03-23T20:55:25.730Z,26.00
2019-03-23T20:57:36.879Z,22.83
2019-03-23T20:59:32.093Z,22.30
2019-03-23T21:01:34.314Z,40.80
2019-03-23T21:03:36.533Z,29.40
2019-03-23T21:05:39.010Z,26.60
2019-03-23T21:07:41.301Z,33.93
2019-03-23T21:09:43.505Z,26.87
2019-03-23T21:11:45.743Z,35.63
2019-03-23T21:13:48.289Z,40.60
2019-03-23T21:15:51.383Z,38.13
2019-03-23T21:17:53.617Z,36.33
2019-03-23T21:19:55.817Z,28.70
2019-03-23T21:21:58.030Z,37.03
2019-03-23T21:24:00.259Z,38.20
2019-03-23T21:26:02.465Z,32.97
2019-03-23T21:28:04.690Z,31.70
2019-03-23T21:30:10.725Z,31.40
2019-03-23T21:32:13.021Z,28.80
2019-03-23T21:34:15.242Z,34.93
2019-03-23T21:36:17.441Z,27.90
2019-03-23T21:38:19.657Z,25.33
2019-03-23T21:40:21.864Z,25.73
2019-03-23T21:42:24.067Z,29.90
2019-03-23T21:44:30.918Z,27.20
2019-03-23T21:46:30.465Z,24.67
2019-03-23T21:48:33.009Z,29.80
2019-03-23T21:50:35.229Z,28.57
2019-03-23T21:52:37.445Z,28.70
2019-03-23T21:54:39.769Z,33.13
2019-03-23T21:56:41.998Z,27.20
2019-03-23T21:58:44.225Z,27.63
2019-03-23T22:00:46.453Z,34.87
2019-03-23T22:02:48.669Z,29.50
2019-03-23T22:04:51.178Z,30.67
2019-03-23T22:06:53.715Z,37.23
2019-03-23T22:08:55.954Z,36.27
2019-03-23T22:10:58.162Z,24.80
2019-03-23T22:13:00.401Z,47.47
2019-03-23T22:15:02.957Z,36.47
2019-03-23T22:17:05.977Z,25.50
2019-03-23T22:19:08.313Z,26.67
2019-03-23T22:21:10.534Z,28.40
2019-03-23T22:23:12.794Z,34.17
2019-03-23T22:25:15.006Z,26.47
2019-03-23T22:27:19.059Z,27.10
2019-03-23T22:29:21.349Z,30.27
2019-03-23T22:31:23.574Z,30.00
2019-03-23T22:33:25.794Z,22.80
2019-03-23T22:35:28.309Z,24.37
2019-03-23T22:37:30.523Z,33.97
2019-03-23T22:39:33.087Z,43.83
2019-03-23T22:41:35.297Z,44.80
2019-03-23T22:43:37.517Z,21.27
2019-03-23T22:45:39.738Z,28.17
2019-03-23T22:47:41.982Z,39.20
2019-03-23T22:49:44.206Z,29.60
2019-03-23T22:51:46.418Z,49.57
2019-03-23T22:53:48.817Z,43.53
2019-03-23T22:55:51.057Z,55.33
2019-03-23T22:57:55.549Z,41.07
2019-03-23T22:59:58.114Z,29.60
2019-03-23T23:02:00.395Z,37.33
2019-03-23T23:04:02.994Z,33.87
2019-03-23T23:06:05.209Z,40.83
2019-03-23T23:08:07.650Z,35.07
2019-03-23T23:10:09.878Z,38.73
2019-03-23T23:12:12.081Z,38.10
2019-03-23T23:14:14.305Z,32.50
2019-03-23T23:16:16.513Z,34.57
2019-03-23T23:18:18.727Z,25.33
2019-03-23T23:20:20.949Z,34.67
2019-03-23T23:22:23.498Z,41.73
2019-03-23T23:24:25.730Z,26.30
2019-03-23T23:26:27.941Z,18.27
2019-03-23T23:28:30.157Z,29.67
2019-03-23T23:30:32.376Z,29.07
2019-03-23T23:32:34.594Z,31.93
2019-03-23T23:34:37.093Z,28.60
2019-03-23T23:36:39.301Z,33.57
2019-03-23T23:38:41.525Z,27.57
2019-03-23T23:40:43.997Z,22.13
2019-03-23T23:42:46.213Z,22.90
2019-03-23T23:44:48.437Z,22.63
2019-03-23T23:46:50.664Z,38.47
2019-03-23T23:48:53.165Z,24.37
2019-03-23T23:50:55.385Z,31.47
2019-03-23T23:52:57.611Z,56.37
2019-03-23T23:54:59.836Z,25.03
2019-03-23T23:57:02.049Z,26.50
2019-03-23T23:59:04.285Z,34.30
